Terminal Aerodrome Forecast
Issued by NWS

Home | Current Version | Previous Version | Text Only | Print | Product List | Glossary Off
Versions: 1 2 3 4 5 6 7 8 9 10 11 12 13 14 15 16 17 18 19 20 21 22 23 24 25 26 27 28 29 30 31 32 33 34 35 36

000
FTUS43 KLOT 261959 AAA
TAFDPA
TAF AMD
KDPA 261959Z 2620/2718 11006KT P6SM VCSH SCT060 BKN120
      TEMPO 2620/2622 -RA
     FM270000 VRB03KT P6SM BKN150
     FM270800 VRB03KT 5SM BR SCT120
     FM271400 14009KT P6SM SCT120=

USA.gov is the U.S. government's official web portal to all federal, state and local government web resources and services.